5 day graph

You are here

Error message

  • Notice: Trying to access array offset on value of type int in DrupalRequestSanitizer::stripDangerousValues() (line 102 of /home/twolittl/public_html/cms/includes/request-sanitizer.inc).
  • Notice: Trying to access array offset on value of type int in DrupalRequestSanitizer::stripDangerousValues() (line 102 of /home/twolittl/public_html/cms/includes/request-sanitizer.inc).
  • Notice: Trying to access array offset on value of type int in DrupalRequestSanitizer::stripDangerousValues() (line 102 of /home/twolittl/public_html/cms/includes/request-sanitizer.inc).
  • Notice: Trying to access array offset on value of type int in DrupalRequestSanitizer::stripDangerousValues() (line 102 of /home/twolittl/public_html/cms/includes/request-sanitizer.inc).
  • Notice: Trying to access array offset on value of type int in DrupalRequestSanitizer::stripDangerousValues() (line 102 of /home/twolittl/public_html/cms/includes/request-sanitizer.inc).
  • Notice: Trying to access array offset on value of type int in DrupalRequestSanitizer::stripDangerousValues() (line 102 of /home/twolittl/public_html/cms/includes/request-sanitizer.inc).
  • Notice: Trying to access array offset on value of type int in DrupalRequestSanitizer::stripDangerousValues() (line 102 of /home/twolittl/public_html/cms/includes/request-sanitizer.inc).
  • Notice: Trying to access array offset on value of type int in DrupalRequestSanitizer::stripDangerousValues() (line 102 of /home/twolittl/public_html/cms/includes/request-sanitizer.inc).
  • Deprecated function: Function get_magic_quotes_gpc() is deprecated in phpMyEdit->get_cgi_var() (line 1773 of /home/twolittl/public_html/phpMyEdit.class.php).
  • Deprecated function: implode(): Passing glue string after array is deprecated. Swap the parameters in drupal_get_feeds() (line 394 of /home/twolittl/public_html/cms/includes/common.inc).

Hive Data

Page: 1 of 16645  Records: 998690

Row Date Time Hive Temp Hive Humidity Outside Temp Outside Humidity Bottom Board Temp Outside Wall Temp Electronics Temp Light Levels inHG Fan Heat Cover Notes
Clear Sorted By: Light Levels ascending, Outside Wall Temp descending, Row descending
View 984010 Jun 5 2016 5:38:07pm 95.18 29 95.36 29 98.6 95.9 96.8 0 29.13 0 0 0 NA
View 984009 Jun 5 2016 5:37:07pm 95.18 30 95.36 29 98.6 95.9 96.8 0 29.13 0 0 0 NA
View 984008 Jun 5 2016 5:36:07pm 95.18 30 95.54 28 98.6 95.9 96.8 0 29.13 0 0 0 NA
View 984006 Jun 5 2016 5:34:06pm 95.18 30 95.54 29 98.6 95.9 98.6 0 29.13 0 0 0 NA
View 984005 Jun 5 2016 5:33:06pm 95.18 30 95.54 29 98.6 95.9 98.6 0 29.13 0 0 0 NA
View 984000 Jun 5 2016 5:28:05pm 95.18 31 95.54 29 99.05 95.9 98.6 0 29.13 0 0 0 NA
View 983999 Jun 5 2016 5:27:05pm 95.18 30 95.36 30 98.6 95.9 98.6 0 29.13 0 0 0 NA
View 983998 Jun 5 2016 5:26:05pm 95.18 30 95.18 29 98.6 95.9 98.6 0 29.13 0 0 0 NA
View 983997 Jun 5 2016 5:25:04pm 95.18 31 95.18 30 98.6 95.9 98.6 0 29.13 0 0 0 NA
View 983996 Jun 5 2016 5:24:04pm 95.18 30 95.18 29 98.6 95.9 98.6 0 29.13 0 0 0 NA
View 983995 Jun 5 2016 5:23:04pm 95.18 29 95 29 99.05 95.9 98.6 0 29.13 0 0 0 NA
View 983994 Jun 5 2016 5:22:04pm 95.36 29 95 29 98.6 95.9 98.6 0 29.13 0 0 0 NA
View 983993 Jun 5 2016 5:21:04pm 95.36 29 95 29 98.6 95.9 98.6 0 29.13 0 0 0 NA
View 983992 Jun 5 2016 5:20:04pm 95.36 29 95 29 99.05 95.9 98.6 0 29.13 0 0 0 NA
View 983988 Jun 5 2016 5:16:03pm 95.18 29 95.18 28 99.05 95.9 98.6 0 29.13 0 0 0 NA
View 983977 Jun 5 2016 5:05:00pm 95 30 95.18 29 98.6 95.9 98.6 0 29.13 0 0 0 NA
View 984017 Jun 5 2016 5:45:09pm 95 30 94.82 28 98.6 95.45 96.8 0 29.13 0 0 0 NA
View 984016 Jun 5 2016 5:44:08pm 95 30 94.82 29 98.6 95.45 96.8 0 29.13 0 0 0 NA
View 984015 Jun 5 2016 5:43:08pm 95 30 95 29 98.6 95.45 96.8 0 29.13 0 0 0 NA
View 984014 Jun 5 2016 5:42:08pm 95 30 95.18 29 98.6 95.45 96.8 0 29.13 0 0 0 NA
View 984013 Jun 5 2016 5:41:08pm 95 30 95.18 29 98.6 95.45 96.8 0 29.13 0 0 0 NA
View 984012 Jun 5 2016 5:40:07pm 95 30 95.36 29 98.6 95.45 96.8 0 29.13 0 0 0 NA
View 984011 Jun 5 2016 5:39:07pm 95.18 30 95.36 29 98.6 95.45 96.8 0 29.13 0 0 0 NA
View 984007 Jun 5 2016 5:35:07pm 95.18 30 95.54 29 98.6 95.45 98.6 0 29.13 0 0 0 NA
View 984004 Jun 5 2016 5:32:06pm 95.18 30 95.54 29 98.6 95.45 98.6 0 29.13 0 0 0 NA
View 984003 Jun 5 2016 5:31:06pm 95.18 30 95.54 29 98.6 95.45 98.6 0 29.13 0 0 0 NA
View 984002 Jun 5 2016 5:30:06pm 95.18 29 95.54 29 98.6 95.45 98.6 0 29.13 0 0 0 NA
View 984055 Jun 5 2016 6:23:17pm 95 37 97.52 31 98.15 95 95 0 29.13 0 0 0 NA
View 984054 Jun 5 2016 6:22:17pm 94.82 38 97.52 34 98.15 95 95 0 29.13 0 0 0 NA
View 984053 Jun 5 2016 6:21:16pm 94.82 38 97.7 33 98.15 95 95 0 29.13 0 0 0 NA
View 984052 Jun 5 2016 6:20:16pm 94.64 39 97.7 33 98.15 95 95 0 29.13 0 0 0 NA
View 984051 Jun 5 2016 6:19:16pm 94.64 35 97.7 32 98.15 95 95 0 29.13 0 0 0 NA
View 984049 Jun 5 2016 6:17:16pm 94.64 34 97.52 31 98.15 95 96.8 0 29.13 0 0 0 NA
View 984040 Jun 5 2016 6:08:14pm 94.46 31 95.72 30 98.15 95 96.8 0 29.13 0 0 0 NA
View 984039 Jun 5 2016 6:07:13pm 94.46 30 95.72 30 98.15 95 96.8 0 29.13 0 0 0 NA
View 984038 Jun 5 2016 6:06:13pm 94.64 32 95.54 30 98.15 95 96.8 0 29.13 0 0 0 NA
View 984037 Jun 5 2016 6:05:13pm 94.64 32 95.54 30 98.15 95 96.8 0 29.13 0 0 0 NA
View 984036 Jun 5 2016 6:04:13pm 94.64 31 95.36 30 98.15 95 96.8 0 29.13 0 0 0 NA
View 984035 Jun 5 2016 6:03:13pm 94.64 31 95.36 30 98.15 95 96.8 0 29.13 0 0 0 NA
View 984034 Jun 5 2016 6:02:12pm 94.64 31 95.18 31 98.15 95 96.8 0 29.13 0 0 0 NA
View 984033 Jun 5 2016 6:01:12pm 94.82 32 95.18 31 98.15 95 96.8 0 29.13 0 0 0 NA
View 984032 Jun 5 2016 6:00:12pm 94.82 31 95 30 98.15 95 96.8 0 29.13 0 0 0 NA
View 984031 Jun 5 2016 5:59:12pm 94.82 31 94.82 30 98.15 95 96.8 0 29.13 0 0 0 NA
View 984030 Jun 5 2016 5:58:11pm 94.82 31 94.82 30 98.15 95 96.8 0 29.13 0 0 0 NA
View 984029 Jun 5 2016 5:57:11pm 95 32 94.64 30 98.15 95 96.8 0 29.13 0 0 0 NA
View 984028 Jun 5 2016 5:56:11pm 95 31 94.64 30 98.15 95 96.8 0 29.13 0 0 0 NA
View 984027 Jun 5 2016 5:55:11pm 95 31 94.64 30 98.15 95 96.8 0 29.13 0 0 0 NA
View 984026 Jun 5 2016 5:54:11pm 95.18 31 94.64 29 98.6 95 96.8 0 29.13 0 0 0 NA
View 984025 Jun 5 2016 5:53:10pm 95.18 32 94.64 30 98.6 95 96.8 0 29.13 0 0 0 NA
View 984024 Jun 5 2016 5:52:10pm 95.18 31 94.64 29 98.15 95 96.8 0 29.13 0 0 0 NA
View 984023 Jun 5 2016 5:51:10pm 95.18 31 94.64 29 98.6 95 96.8 0 29.13 0 0 0 NA
View 984022 Jun 5 2016 5:50:10pm 95.18 32 94.64 30 98.6 95 96.8 0 29.13 0 0 0 NA
View 984021 Jun 5 2016 5:49:09pm 95 31 94.64 29 98.6 95 96.8 0 29.13 0 0 0 NA
View 984020 Jun 5 2016 5:48:10pm 95 30 94.64 29 98.6 95 96.8 0 29.13 0 0 0 NA
View 984019 Jun 5 2016 5:47:09pm 95 30 94.82 28 98.6 95 96.8 0 29.13 0 0 0 NA
View 984018 Jun 5 2016 5:46:09pm 95 31 94.82 28 98.6 95 96.8 0 29.13 0 0 0 NA
View 984060 Jun 5 2016 6:28:18pm 94.82 35 96.8 32 98.15 94.55 95 0 29.13 0 0 0 NA
View 984059 Jun 5 2016 6:27:17pm 94.82 37 96.98 33 98.15 94.55 95 0 29.13 0 0 0 NA
View 984058 Jun 5 2016 6:26:18pm 94.82 37 97.16 34 98.15 94.55 95 0 29.13 0 0 0 NA
View 984057 Jun 5 2016 6:25:17pm 94.82 37 97.34 34 98.15 94.55 95 0 29.13 0 0 0 NA